Time;durP1;ratioP1;P1;durP2;ratioP2;P2;SDS_P1;SDS_P2;PMS_P1;PMS_P2;Temp;Humidity;BMP_temperature;BMP_pressure;BME280_temperature;BME280_humidity;BME280_pressure;Samples;Min_cycle;Max_cycle;Signal;HPM_P1;HPM_P2
2022/04/23 00:01:10;;;;;;;0.10;0.10;;;;;;;20.27;41.14;100076.25;5078302;28;20407;-29
2022/04/23 00:03:36;;;;;;;0.10;0.10;;;;;;;20.26;41.47;100080.97;5077029;28;20047;-29
2022/04/23 00:06:03;;;;;;;0.20;0.20;;;;;;;20.28;41.37;100081.47;5062240;28;20040;-30
2022/04/23 00:08:28;;;;;;;0.10;0.10;;;;;;;20.27;41.14;100070.72;5083320;28;20897;-31
2022/04/23 00:10:54;;;;;;;0.10;0.10;;;;;;;20.26;41.35;100075.44;5080274;28;20051;-29
2022/04/23 00:13:20;;;;;;;0.10;0.10;;;;;;;20.27;41.24;100087.31;5086048;28;20131;-30
2022/04/23 00:15:45;;;;;;;0.13;0.13;;;;;;;20.28;41.05;100073.19;5054092;28;20040;-31
2022/04/23 00:18:11;;;;;;;0.20;0.20;;;;;;;20.28;41.37;100077.88;5059816;28;20051;-29
2022/04/23 00:20:38;;;;;;;0.10;0.10;;;;;;;20.26;41.27;100080.16;5060960;28;20059;-29
2022/04/23 00:23:05;;;;;;;0.20;0.20;;;;;;;20.27;41.56;100079.03;5084598;28;20044;-30
2022/04/23 00:25:31;;;;;;;0.10;0.10;;;;;;;20.27;41.38;100073.50;5075272;28;20487;-32
2022/04/23 00:27:58;;;;;;;0.20;0.20;;;;;;;20.26;41.13;100080.97;5085421;28;20076;-31
2022/04/23 00:30:23;;;;;;;0.10;0.10;;;;;;;20.27;41.14;100079.03;5065552;28;20112;-30
2022/04/23 00:32:49;;;;;;;0.30;0.30;;;;;;;20.29;41.15;100085.06;5088650;28;20481;-30
2022/04/23 00:35:16;;;;;;;0.10;0.10;;;;;;;20.27;41.46;100079.03;5053119;28;20051;-30
2022/04/23 00:37:42;;;;;;;0.20;0.20;;;;;;;20.28;41.22;100072.38;5083426;28;20109;-31
2022/04/23 00:40:16;;;;;;;0.10;0.10;;;;;;;20.26;41.14;100071.88;5068540;28;20178;-31
2022/04/23 00:42:47;;;;;;;0.10;0.10;;;;;;;20.28;41.22;100077.88;5084965;28;20059;-29
2022/04/23 00:45:13;;;;;;;0.10;0.10;;;;;;;20.27;41.30;100079.84;5065437;28;20041;-31
2022/04/23 00:47:39;;;;;;;0.20;0.20;;;;;;;20.27;41.21;100073.50;5085346;28;20298;-32
2022/04/23 00:50:05;;;;;;;0.13;0.13;;;;;;;20.27;41.23;100077.06;5076168;28;20076;-30
2022/04/23 00:52:32;;;;;;;0.20;0.20;;;;;;;20.28;41.17;100075.13;5068920;28;20148;-30
2022/04/23 00:54:59;;;;;;;0.20;0.20;;;;;;;20.27;41.07;100077.06;5085049;28;20094;-30
2022/04/23 00:57:25;;;;;;;0.20;0.20;;;;;;;20.27;41.29;100077.06;5085744;28;20131;-31
2022/04/23 00:59:51;;;;;;;0.20;0.20;;;;;;;20.25;41.34;100071.06;5081155;28;20044;-29
2022/04/23 01:02:17;;;;;;;0.20;0.20;;;;;;;20.27;41.14;100074.31;5065692;28;20071;-29
2022/04/23 01:04:43;;;;;;;0.20;0.20;;;;;;;20.27;41.15;100074.31;5084380;28;20043;-29
2022/04/23 01:07:11;;;;;;;0.10;0.10;;;;;;;20.27;41.14;100071.53;5085729;28;20053;-29
2022/04/23 01:09:36;;;;;;;0.15;0.15;;;;;;;20.27;41.37;100073.50;5081255;28;20472;-30
2022/04/23 01:12:02;;;;;;;0.17;0.17;;;;;;;20.26;41.17;100072.69;5079704;28;20463;-30
2022/04/23 01:14:28;;;;;;;0.10;0.10;;;;;;;20.26;41.23;100067.16;5059653;28;20491;-29
2022/04/23 01:16:54;;;;;;;0.20;0.20;;;;;;;20.26;41.25;100069.09;5087108;28;20054;-30
2022/04/23 01:19:22;;;;;;;0.20;0.20;;;;;;;20.25;41.52;100068.28;5085322;28;20146;-31
2022/04/23 01:21:47;;;;;;;0.10;0.10;;;;;;;20.26;41.27;100077.41;5082950;28;20140;-31
2022/04/23 01:24:14;;;;;;;0.20;0.20;;;;;;;20.27;41.32;100082.59;5079701;28;20048;-31
2022/04/23 01:26:40;;;;;;;0.10;0.10;;;;;;;20.26;41.21;100074.63;5081888;28;20105;-31
2022/04/23 01:29:05;;;;;;;0.10;0.10;;;;;;;20.27;41.42;100079.03;5082139;28;20052;-31
2022/04/23 01:31:32;;;;;;;0.10;0.10;;;;;;;20.26;41.45;100074.63;5084101;28;20409;-30
2022/04/23 01:33:59;;;;;;;0.10;0.10;;;;;;;20.27;41.24;100085.38;5081666;28;20126;-29
2022/04/23 01:36:24;;;;;;;0.20;0.20;;;;;;;20.26;41.16;100078.22;5082128;28;21245;-31
2022/04/23 01:38:50;;;;;;;0.15;0.15;;;;;;;20.25;41.17;100073.81;5080865;28;20090;-30
2022/04/23 01:41:16;;;;;;;0.10;0.10;;;;;;;20.26;41.17;100080.16;5058972;28;20178;-31
2022/04/23 01:43:42;;;;;;;0.20;0.20;;;;;;;20.26;41.39;100080.97;5085536;28;20044;-30
2022/04/23 01:46:08;;;;;;;0.20;0.20;;;;;;;20.26;41.30;100082.94;5079349;28;20410;-30
2022/04/23 01:48:34;;;;;;;0.10;0.10;;;;;;;20.26;41.29;100080.16;5078905;28;20518;-31
2022/04/23 01:50:59;;;;;;;0.20;0.20;;;;;;;20.26;41.06;100086.50;5085274;28;20044;-29
2022/04/23 01:53:25;;;;;;;0.20;0.20;;;;;;;20.27;41.16;100079.03;5069736;28;20401;-30
2022/04/23 01:55:53;;;;;;;0.20;0.20;;;;;;;20.26;41.38;100088.47;5081603;28;20048;-29
2022/04/23 01:58:19;;;;;;;0.10;0.10;;;;;;;20.26;41.34;100092.03;5055157;28;20127;-29
2022/04/23 02:00:44;;;;;;;0.10;0.10;;;;;;;20.27;41.39;100081.78;5082061;28;20051;-29
2022/04/23 02:03:10;;;;;;;0.10;0.10;;;;;;;20.26;41.40;100089.28;5086036;28;20044;-31
2022/04/23 02:05:37;;;;;;;0.20;0.20;;;;;;;20.25;41.38;100093.16;5077382;28;20052;-30
2022/04/23 02:08:03;;;;;;;0.10;0.10;;;;;;;20.25;41.23;100082.09;5079852;28;20072;-30
2022/04/23 02:10:28;;;;;;;0.10;0.10;;;;;;;20.26;41.24;100088.47;5077538;28;20166;-29
2022/04/23 02:12:54;;;;;;;0.10;0.10;;;;;;;20.26;41.40;100092.03;5088213;28;20062;-32
2022/04/23 02:15:20;;;;;;;0.15;0.15;;;;;;;20.26;41.32;100085.69;5087538;28;20071;-30
2022/04/23 02:17:49;;;;;;;0.20;0.20;;;;;;;20.27;41.20;100087.31;5078614;28;20497;-31
2022/04/23 02:20:16;;;;;;;0.10;0.10;;;;;;;20.25;41.22;100084.88;5081576;28;20071;-29
2022/04/23 02:22:42;;;;;;;0.20;0.20;;;;;;;20.26;41.24;100074.63;5082289;28;20075;-30
2022/04/23 02:25:08;;;;;;;0.10;0.10;;;;;;;20.25;41.29;100084.03;5066323;28;20135;-31
2022/04/23 02:27:43;;;;;;;0.10;0.10;;;;;;;20.26;41.14;100083.75;5061526;28;20044;-32
2022/04/23 02:30:10;;;;;;;0.20;0.20;;;;;;;20.26;41.33;100083.75;5081225;28;20066;-32
2022/04/23 02:32:36;;;;;;;0.10;0.10;;;;;;;20.26;41.10;100080.16;5085091;28;20048;-33
2022/04/23 02:35:03;;;;;;;0.13;0.13;;;;;;;20.25;41.22;100076.56;5087241;28;20059;-30
2022/04/23 02:37:32;;;;;;;0.10;0.10;;;;;;;20.26;41.14;100078.22;5078702;28;20045;-29
2022/04/23 02:39:58;;;;;;;0.10;0.10;;;;;;;20.26;41.16;100077.41;5078509;28;20076;-30
2022/04/23 02:42:23;;;;;;;0.10;0.10;;;;;;;20.25;41.40;100079.34;5087254;28;20105;-29
2022/04/23 02:44:50;;;;;;;0.20;0.20;;;;;;;20.26;41.33;100075.44;5079601;28;20045;-30
2022/04/23 02:47:16;;;;;;;0.10;0.10;;;;;;;20.26;41.50;100075.44;5082315;28;20087;-31
2022/04/23 02:49:42;;;;;;;0.10;0.10;;;;;;;20.26;41.07;100077.41;5078703;28;20482;-29
2022/04/23 02:52:08;;;;;;;0.10;0.10;;;;;;;20.26;41.08;100077.41;5067264;28;20055;-31
2022/04/23 02:54:33;;;;;;;0.20;0.20;;;;;;;20.26;41.12;100074.63;5082075;28;20052;-31
2022/04/23 02:57:00;;;;;;;0.20;0.20;;;;;;;20.26;41.33;100063.56;5079477;28;20445;-29
2022/04/23 02:59:26;;;;;;;0.10;0.10;;;;;;;20.27;41.22;100074.31;5078759;28;20131;-29
2022/04/23 03:01:52;;;;;;;0.10;0.10;;;;;;;20.25;41.34;100071.06;5087800;28;20052;-33
2022/04/23 03:04:19;;;;;;;0.10;0.10;;;;;;;20.26;41.03;100066.34;5077756;28;20056;-30
2022/04/23 03:06:45;;;;;;;0.15;0.15;;;;;;;20.27;41.25;100070.72;5081085;28;20083;-29
2022/04/23 03:09:11;;;;;;;0.20;0.20;;;;;;;20.26;41.23;100069.91;5078226;28;20084;-30
2022/04/23 03:11:37;;;;;;;0.10;0.10;;;;;;;20.26;41.06;100071.88;5080642;28;20052;-29
2022/04/23 03:14:04;;;;;;;0.15;0.15;;;;;;;20.25;41.35;100075.72;5080782;28;20072;-31
2022/04/23 03:16:29;;;;;;;0.20;0.20;;;;;;;20.27;41.24;100067.97;5061889;28;20135;-32
2022/04/23 03:18:57;;;;;;;0.20;0.20;;;;;;;20.25;41.14;100068.28;5076683;28;20054;-30
2022/04/23 03:21:23;;;;;;;0.13;0.13;;;;;;;20.25;41.36;100061.91;5080726;28;20071;-30
2022/04/23 03:23:48;;;;;;;0.20;0.20;;;;;;;20.25;41.00;100064.66;5078447;28;20131;-29
2022/04/23 03:26:14;;;;;;;0.10;0.10;;;;;;;20.25;41.43;100065.53;5085005;28;20047;-31
2022/04/23 03:28:40;;;;;;;0.20;0.20;;;;;;;20.27;41.20;100071.53;5079857;28;20089;-30
2022/04/23 03:31:05;;;;;;;0.20;0.20;;;;;;;20.27;41.37;100063.25;5056244;28;20151;-30
2022/04/23 03:33:32;;;;;;;0.20;0.20;;;;;;;20.26;41.01;100066.34;5084647;28;20048;-31
2022/04/23 03:35:58;;;;;;;0.10;0.10;;;;;;;20.28;41.08;100069.59;5077774;28;20068;-31
2022/04/23 03:38:24;;;;;;;0.20;0.20;;;;;;;20.25;41.32;100071.06;5076695;28;20042;-30
2022/04/23 03:40:53;;;;;;;0.20;0.20;;;;;;;20.25;41.46;100065.53;5082008;28;20043;-30
2022/04/23 03:43:20;;;;;;;0.10;0.10;;;;;;;20.25;41.33;100065.53;5082515;28;20087;-29
2022/04/23 03:45:47;;;;;;;0.10;0.10;;;;;;;20.26;41.24;100055.28;5081835;28;20109;-29
2022/04/23 03:48:14;;;;;;;0.20;0.20;;;;;;;20.25;41.24;100059.16;5078817;28;20051;-30
2022/04/23 03:50:40;;;;;;;0.20;0.20;;;;;;;20.25;41.08;100060.00;5076560;28;20111;-29
2022/04/23 03:53:06;;;;;;;0.10;0.10;;;;;;;20.25;41.31;100056.38;5076958;28;20068;-29
2022/04/23 03:55:32;;;;;;;0.10;0.10;;;;;;;20.25;41.19;100053.63;5064834;28;20071;-30
2022/04/23 03:57:57;;;;;;;0.22;0.22;;;;;;;20.26;41.32;100055.28;5082064;28;20033;-30
2022/04/23 04:00:23;;;;;;;0.10;0.10;;;;;;;20.26;41.45;100055.28;5084304;28;20036;-30
2022/04/23 04:02:50;;;;;;;0.10;0.10;;;;;;;20.25;41.17;100059.16;5081065;28;20037;-31
2022/04/23 04:05:16;;;;;;;0.10;0.10;;;;;;;20.24;41.42;100052.81;5066256;28;20045;-33
2022/04/23 04:07:43;;;;;;;0.10;0.10;;;;;;;20.25;41.24;100054.47;5066180;28;20446;-31
2022/04/23 04:10:11;;;;;;;0.10;0.10;;;;;;;20.26;41.32;100058.84;5061354;28;20510;-31
2022/04/23 04:12:37;;;;;;;0.10;0.10;;;;;;;20.27;41.24;100056.91;5064876;28;20087;-30
2022/04/23 04:15:05;;;;;;;0.20;0.20;;;;;;;20.27;41.41;100054.16;5085894;28;20073;-29
2022/04/23 04:17:31;;;;;;;0.10;0.10;;;;;;;20.26;41.20;100056.09;5085393;28;20551;-30
2022/04/23 04:19:57;;;;;;;0.10;0.10;;;;;;;20.26;41.29;100052.50;5082155;28;20089;-32
2022/04/23 04:22:23;;;;;;;0.10;0.10;;;;;;;20.26;41.37;100047.78;5084176;28;20454;-31
2022/04/23 04:24:48;;;;;;;0.20;0.20;;;;;;;20.26;41.29;100052.50;5078787;28;20127;-30
2022/04/23 04:27:14;;;;;;;0.10;0.10;;;;;;;20.26;41.32;100050.56;5087265;28;20071;-33
2022/04/23 04:29:40;;;;;;;0.10;0.10;;;;;;;20.25;41.10;100042.56;5083015;28;20209;-30
2022/04/23 04:32:07;;;;;;;0.10;0.10;;;;;;;20.25;41.32;100048.94;5086698;28;20048;-31
2022/04/23 04:34:33;;;;;;;0.10;0.10;;;;;;;20.26;41.15;100046.97;5084426;28;20079;-30
2022/04/23 04:37:08;;;;;;;0.20;0.20;;;;;;;20.25;41.09;100040.63;5068263;28;20501;-30
2022/04/23 04:39:35;;;;;;;0.10;0.10;;;;;;;20.25;41.27;100037.88;5066217;28;20071;-31
2022/04/23 04:42:01;;;;;;;0.20;0.20;;;;;;;20.25;41.43;100040.63;5085366;28;20098;-31
2022/04/23 04:44:26;;;;;;;0.10;0.10;;;;;;;20.26;41.26;100046.97;5085708;28;20399;-29
2022/04/23 04:46:52;;;;;;;0.15;0.15;;;;;;;20.24;41.19;100036.22;5063824;28;20048;-29
2022/04/23 04:49:18;;;;;;;0.10;0.10;;;;;;;20.25;41.18;100039.78;5082626;28;20048;-30
2022/04/23 04:51:44;;;;;;;0.10;0.10;;;;;;;20.25;41.17;100037.03;5086693;28;20482;-31
2022/04/23 04:54:09;;;;;;;0.10;0.10;;;;;;;20.25;41.15;100043.41;5083919;28;20060;-30
2022/04/23 04:56:35;;;;;;;0.13;0.13;;;;;;;20.24;41.36;100041.75;5064902;28;20044;-32
2022/04/23 04:59:01;;;;;;;0.20;0.20;;;;;;;20.25;41.34;100048.09;5080413;28;20048;-30
2022/04/23 05:01:27;;;;;;;0.20;0.20;;;;;;;20.25;41.10;100042.56;5086862;28;20152;-29
2022/04/23 05:03:54;;;;;;;0.20;0.20;;;;;;;20.25;41.25;100046.16;5089304;28;20043;-29
2022/04/23 05:06:20;;;;;;;0.10;0.10;;;;;;;20.25;41.36;100050.84;5080564;28;20479;-31
2022/04/23 05:08:45;;;;;;;0.10;0.10;;;;;;;20.24;41.47;100044.50;5063271;28;20135;-30
2022/04/23 05:11:11;;;;;;;0.10;0.10;;;;;;;20.25;41.47;100051.69;5081068;28;20283;-30
2022/04/23 05:13:38;;;;;;;0.10;0.10;;;;;;;20.26;41.33;100055.28;5078693;28;20036;-30
2022/04/23 05:16:06;;;;;;;0.10;0.10;;;;;;;20.25;41.09;100054.47;5085288;28;20076;-30
2022/04/23 05:18:32;;;;;;;0.10;0.10;;;;;;;20.25;41.08;100050.84;5081965;28;20139;-31
2022/04/23 05:20:58;;;;;;;0.10;0.10;;;;;;;20.24;41.08;100052.00;5079842;28;20128;-31
2022/04/23 05:23:24;;;;;;;0.10;0.10;;;;;;;20.25;41.14;100054.47;5085667;28;20055;-31
2022/04/23 05:25:49;;;;;;;0.10;0.10;;;;;;;20.26;40.98;100049.75;5082508;28;20044;-30
2022/04/23 05:28:15;;;;;;;0.10;0.10;;;;;;;20.26;41.07;100038.69;5081456;28;20416;-29
2022/04/23 05:30:41;;;;;;;0.15;0.15;;;;;;;20.25;41.06;100037.03;5063892;28;20778;-30
2022/04/23 05:33:07;;;;;;;0.15;0.15;;;;;;;20.25;41.04;100037.03;5083505;28;20063;-29
2022/04/23 05:35:33;;;;;;;0.10;0.10;;;;;;;20.24;41.11;100044.50;5070192;28;20052;-32
2022/04/23 05:37:59;;;;;;;0.10;0.10;;;;;;;20.25;41.35;100037.03;5086447;28;20089;-30
2022/04/23 05:40:24;;;;;;;0.20;0.20;;;;;;;20.24;41.41;100044.50;5082111;28;20067;-30
2022/04/23 05:42:50;;;;;;;0.20;0.20;;;;;;;20.24;41.47;100038.97;5087608;28;20044;-31
2022/04/23 05:45:16;;;;;;;0.10;0.10;;;;;;;20.25;41.12;100034.25;5084135;28;20056;-29
2022/04/23 05:47:42;;;;;;;0.20;0.20;;;;;;;20.24;41.41;100033.44;5087309;28;20491;-30
2022/04/23 05:50:09;;;;;;;0.15;0.15;;;;;;;20.26;41.05;100038.69;5079770;28;20474;-29
2022/04/23 05:52:35;;;;;;;0.30;0.30;;;;;;;20.25;41.21;100037.88;5085403;28;20431;-30
2022/04/23 05:55:01;;;;;;;0.15;0.15;;;;;;;20.25;41.14;100034.25;5084470;28;20082;-31
2022/04/23 05:57:26;;;;;;;0.10;0.10;;;;;;;20.25;41.14;100042.56;5071202;28;20127;-30
2022/04/23 05:59:52;;;;;;;0.13;0.13;;;;;;;20.24;41.16;100032.63;5076766;28;20062;-29
2022/04/23 06:02:18;;;;;;;0.20;0.20;;;;;;;20.24;41.24;100033.44;5069502;28;20047;-30
2022/04/23 06:04:45;;;;;;;0.10;0.10;;;;;;;20.24;41.10;100038.97;5084241;28;20201;-31
2022/04/23 06:07:11;;;;;;;0.13;0.13;;;;;;;20.25;41.16;100042.56;5077642;28;20076;-30
2022/04/23 06:09:36;;;;;;;0.10;0.10;;;;;;;20.25;41.00;100039.78;5061344;28;20055;-30
2022/04/23 06:12:02;;;;;;;0.10;0.10;;;;;;;20.26;41.26;100035.94;5083631;28;20048;-30
2022/04/23 06:14:28;;;;;;;0.20;0.20;;;;;;;20.26;41.25;100038.69;5081308;28;20044;-31
2022/04/23 06:16:53;;;;;;;0.15;0.15;;;;;;;20.24;41.08;100041.75;5079554;28;21174;-29
2022/04/23 06:19:19;;;;;;;0.13;0.13;;;;;;;20.24;41.39;100044.50;5077239;28;20051;-29
2022/04/23 06:21:45;;;;;;;0.20;0.20;;;;;;;20.24;41.30;100038.97;5087150;28;20178;-33
2022/04/23 06:24:11;;;;;;;0.15;0.15;;;;;;;20.24;41.05;100041.75;5088263;28;20040;-30
2022/04/23 06:26:37;;;;;;;0.10;0.10;;;;;;;20.24;41.15;100032.63;5082836;28;20045;-31
2022/04/23 06:29:02;;;;;;;0.10;0.10;;;;;;;20.25;41.15;100034.25;5080883;28;20143;-30
2022/04/23 06:31:29;;;;;;;0.10;0.10;;;;;;;20.24;41.14;100032.63;5084434;28;20046;-30
2022/04/23 06:33:54;;;;;;;0.17;0.17;;;;;;;20.25;41.41;100037.88;5077897;28;20459;-30
2022/04/23 06:36:20;;;;;;;0.10;0.10;;;;;;;20.24;41.34;100038.97;5084149;28;20459;-31
2022/04/23 06:38:46;;;;;;;0.10;0.10;;;;;;;20.25;41.35;100031.50;5078054;28;20075;-30
2022/04/23 06:41:14;;;;;;;0.10;0.10;;;;;;;20.25;41.09;100037.03;5080582;28;20048;-32
2022/04/23 06:43:40;;;;;;;0.10;0.10;;;;;;;20.24;41.31;100030.69;5086173;28;20131;-29
2022/04/23 06:46:06;;;;;;;0.20;0.20;;;;;;;20.25;41.10;100034.25;5082162;28;20044;-32
2022/04/23 06:48:31;;;;;;;0.10;0.10;;;;;;;20.24;41.09;100036.22;5079250;28;20047;-29
2022/04/23 06:50:57;;;;;;;0.10;0.10;;;;;;;20.24;41.06;100041.75;5081314;28;20044;-31
2022/04/23 06:53:23;;;;;;;0.20;0.20;;;;;;;20.24;41.17;100044.50;5077377;28;20058;-29
2022/04/23 06:55:48;;;;;;;0.20;0.20;;;;;;;20.25;41.17;100042.56;5085995;28;20050;-30
2022/04/23 06:58:15;;;;;;;0.10;0.10;;;;;;;20.24;41.09;100043.69;5082695;28;21410;-30
2022/04/23 07:00:41;;;;;;;0.10;0.10;;;;;;;20.23;41.31;100037.34;5079033;28;20446;-29
2022/04/23 07:03:07;;;;;;;0.20;0.20;;;;;;;20.23;41.23;100042.88;5082445;28;21858;-30
2022/04/23 07:05:33;;;;;;;0.10;0.10;;;;;;;20.22;41.42;100030.19;5084417;28;20135;-30
2022/04/23 07:08:02;;;;;;;0.10;0.10;;;;;;;20.24;41.08;100035.41;5063432;28;20052;-30
2022/04/23 07:10:30;;;;;;;0.10;0.10;;;;;;;20.24;41.40;100035.41;5063248;28;20098;-30
2022/04/23 07:12:56;;;;;;;0.20;0.20;;;;;;;20.24;41.19;100033.44;5064440;28;20447;-29
2022/04/23 07:15:22;;;;;;;0.10;0.10;;;;;;;20.24;41.17;100029.88;5062915;28;20474;-30
2022/04/23 07:17:49;;;;;;;0.20;0.20;;;;;;;20.24;41.26;100035.41;5080165;28;20067;-31
2022/04/23 07:20:16;;;;;;;0.10;0.10;;;;;;;20.24;41.28;100032.63;5087846;28;20482;-30
2022/04/23 07:24:02;;;;;;;0.20;0.20;;;;;;;20.25;41.10;100028.72;5082361;28;20456;-30
2022/04/23 07:25:28;;;;;;;0.10;0.10;;;;;;;20.25;41.12;100025.97;5067964;28;20068;-31
2022/04/23 07:27:53;;;;;;;0.15;0.15;;;;;;;20.24;41.16;100029.88;5055506;28;20044;-30
2022/04/23 07:30:19;;;;;;;0.10;0.10;;;;;;;20.24;41.07;100021.56;5084427;28;20445;-30
2022/04/23 07:32:45;;;;;;;0.20;0.20;;;;;;;20.23;41.17;100020.75;5063609;28;20051;-31
2022/04/23 07:37:56;;;;;;;0.20;0.20;;;;;;;20.23;41.41;100009.69;5068461;28;20078;-30
2022/04/23 07:40:22;;;;;;;0.13;0.13;;;;;;;20.24;41.22;100005.00;5084140;28;20536;-30
2022/04/23 07:42:48;;;;;;;0.10;0.10;;;;;;;20.23;41.27;100009.69;5087334;28;20165;-30
2022/04/23 07:45:13;;;;;;;0.10;0.10;;;;;;;20.24;41.23;100008.56;5083008;28;20044;-30
2022/04/23 07:47:39;;;;;;;0.10;0.10;;;;;;;20.23;41.17;100006.94;5080802;28;20047;-30
2022/04/23 07:50:05;;;;;;;0.10;0.10;;;;;;;20.23;41.26;100006.13;5080284;28;20074;-30
2022/04/23 07:52:31;;;;;;;0.10;0.10;;;;;;;20.24;41.07;99999.47;5084554;28;20131;-30
2022/04/23 07:54:57;;;;;;;0.10;0.10;;;;;;;20.23;41.13;100004.16;5085507;28;20498;-30
2022/04/23 07:57:23;;;;;;;0.10;0.10;;;;;;;20.24;41.30;100005.81;5088587;28;20139;-30
2022/04/23 07:59:49;;;;;;;0.20;0.20;;;;;;;20.24;41.14;99993.94;5087086;28;20090;-31
2022/04/23 08:02:15;;;;;;;0.10;0.10;;;;;;;20.23;41.26;99995.88;5087504;28;20386;-30
2022/04/23 08:04:41;;;;;;;0.10;0.10;;;;;;;20.24;41.18;99996.69;5067208;28;20044;-29
2022/04/23 08:07:06;;;;;;;0.20;0.20;;;;;;;20.24;41.22;99991.97;5086704;28;20503;-31
2022/04/23 08:09:37;;;;;;;0.20;0.20;;;;;;;20.23;41.06;100017.19;5066442;28;20052;-30
2022/04/23 08:12:06;;;;;;;0.10;0.10;;;;;;;20.24;41.13;99997.50;5083921;28;20051;-29
2022/04/23 08:14:32;;;;;;;0.10;0.10;;;;;;;20.24;41.22;100005.00;5062631;28;20122;-31
2022/04/23 08:16:59;;;;;;;0.10;0.10;;;;;;;20.23;41.42;100004.16;5085961;28;20123;-30
2022/04/23 08:19:25;;;;;;;0.10;0.10;;;;;;;20.24;41.18;99996.69;5081560;28;20127;-31
2022/04/23 08:21:51;;;;;;;0.10;0.10;;;;;;;20.23;41.32;100006.94;5082685;28;20090;-30
2022/04/23 08:24:18;;;;;;;0.10;0.10;;;;;;;20.23;41.23;99990.34;5081974;28;20049;-30
2022/04/23 08:26:44;;;;;;;0.10;0.10;;;;;;;20.23;41.00;99992.31;5083396;28;20447;-30
2022/04/23 08:31:56;;;;;;;0.20;0.20;;;;;;;20.23;41.40;100006.13;5069212;28;20479;-30
2022/04/23 08:34:22;;;;;;;0.10;0.10;;;;;;;20.23;41.20;100001.41;5085989;28;20041;-30
2022/04/23 08:36:49;;;;;;;0.10;0.10;;;;;;;20.23;41.46;100006.94;5077936;28;20467;-30
2022/04/23 08:39:16;;;;;;;0.10;0.10;;;;;;;20.23;40.92;99989.53;5084636;28;20079;-31
2022/04/23 08:41:44;;;;;;;0.15;0.15;;;;;;;20.24;41.05;100003.03;5063475;28;20139;-30
2022/04/23 08:44:10;;;;;;;0.10;0.10;;;;;;;20.23;41.32;100004.16;5065423;28;20481;-30
2022/04/23 08:46:37;;;;;;;0.13;0.13;;;;;;;20.23;41.29;100004.16;5084622;28;20062;-30
2022/04/23 08:49:09;;;;;;;0.10;0.10;;;;;;;20.23;41.29;100009.69;5060126;28;20166;-29
2022/04/23 08:51:37;;;;;;;0.20;0.20;;;;;;;20.23;41.19;100001.41;5079082;28;20047;-31
2022/04/23 08:54:08;;;;;;;0.10;0.10;;;;;;;20.23;41.13;100015.22;5081685;28;20127;-29
2022/04/23 08:56:36;;;;;;;0.20;0.20;;;;;;;20.22;41.11;100004.50;5067989;28;20128;-30
2022/04/23 08:59:03;;;;;;;0.10;0.10;;;;;;;20.23;41.18;100011.66;5080462;28;20127;-30
2022/04/23 09:01:31;;;;;;;0.10;0.10;;;;;;;20.24;40.95;100010.50;5085885;28;20493;-33
2022/04/23 09:03:57;;;;;;;;;;;;;;;20.23;41.34;100006.13;5063608;28;20048;-31
2022/04/23 09:06:27;;;;;;;0.20;0.20;;;;;;;20.23;40.97;100000.59;5083929;28;19920;-31
2022/04/23 09:09:21;;;;;;;0.10;0.10;;;;;;;20.23;41.08;100001.41;5066046;28;20114;-29
2022/04/23 09:11:56;;;;;;;0.10;0.10;;;;;;;20.22;41.03;100002.53;5070495;28;20040;-30
2022/04/23 09:14:28;;;;;;;0.20;0.20;;;;;;;20.23;41.15;99995.06;5049388;28;20083;-32
2022/04/23 09:25:34;;;;;;;0.10;0.10;;;;;;;20.23;41.31;99993.13;5061053;28;20075;-31
2022/04/23 09:28:20;;;;;;;0.10;0.10;;;;;;;20.22;41.09;99993.44;5068019;28;20518;-30
2022/04/23 09:30:48;;;;;;;0.20;0.20;;;;;;;20.22;41.29;100001.72;5068693;28;20519;-34
2022/04/23 09:33:14;;;;;;;0.17;0.17;;;;;;;20.23;40.95;99987.59;5082589;28;20044;-30
2022/04/23 09:36:01;;;;;;;0.20;0.20;;;;;;;20.23;41.39;99995.88;5085790;28;20368;-31
2022/04/23 09:38:28;;;;;;;0.10;0.10;;;;;;;20.24;41.16;99988.41;5070263;28;20135;-30
2022/04/23 09:40:55;;;;;;;0.10;0.10;;;;;;;20.23;41.27;99984.81;5067016;28;20106;-31
2022/04/23 09:43:26;;;;;;;0.10;0.10;;;;;;;20.23;41.27;99987.59;5062537;28;20071;-30
2022/04/23 09:46:05;;;;;;;0.20;0.20;;;;;;;20.22;40.95;99972.13;5060655;28;20135;-31
2022/04/23 09:48:39;;;;;;;0.20;0.20;;;;;;;20.22;41.21;99982.38;5064513;28;20099;-30
2022/04/23 09:51:05;;;;;;;;;;;;;;;20.24;41.31;99988.41;5062746;28;20040;-31
2022/04/23 09:53:30;;;;;;;0.13;0.13;;;;;;;20.22;40.98;99976.84;5065450;28;19920;-29
2022/04/23 09:56:03;;;;;;;0.10;0.10;;;;;;;20.22;41.05;99982.38;5080940;28;20048;-29
2022/04/23 09:58:29;;;;;;;0.10;0.10;;;;;;;20.21;41.26;99976.03;5079446;28;20083;-29
2022/04/23 10:00:57;;;;;;;0.20;0.20;;;;;;;20.21;41.27;99976.03;5063822;28;20140;-30
2022/04/23 10:03:28;;;;;;;0.20;0.20;;;;;;;20.23;41.14;99976.53;5062991;28;20087;-31
2022/04/23 10:05:54;;;;;;;0.10;0.10;;;;;;;20.23;41.23;99976.53;5062216;28;20044;-29
2022/04/23 10:08:26;;;;;;;0.20;0.20;;;;;;;20.23;40.82;99975.72;5060340;28;20135;-31
2022/04/23 10:10:55;;;;;;;0.10;0.10;;;;;;;20.23;41.03;99981.25;5064915;28;20080;-31
2022/04/23 10:13:22;;;;;;;0.20;0.20;;;;;;;20.23;40.93;99968.22;5047693;28;20076;-30
2022/04/23 10:15:48;;;;;;;0.10;0.10;;;;;;;20.23;41.22;99976.53;5081296;28;20121;-30
2022/04/23 10:18:15;;;;;;;0.10;0.10;;;;;;;20.23;41.01;99976.53;5064405;28;20052;-32
2022/04/23 10:20:52;;;;;;;0.20;0.20;;;;;;;20.24;41.22;99980.09;5082922;28;20083;-30
2022/04/23 10:23:58;;;;;;;0.20;0.20;;;;;;;20.23;41.20;99975.72;5065860;28;20692;-31
2022/04/23 10:26:48;;;;;;;0.17;0.17;;;;;;;20.23;41.18;99970.19;5059617;28;20080;-30
2022/04/23 10:29:16;;;;;;;0.20;0.20;;;;;;;20.23;41.14;99972.94;5048835;28;20131;-31
2022/04/23 10:31:42;;;;;;;0.10;0.10;;;;;;;20.22;40.91;99977.66;5080997;28;20474;-30
2022/04/23 10:34:29;;;;;;;0.20;0.20;;;;;;;20.22;40.99;99974.91;5060616;28;20471;-29
2022/04/23 10:37:22;;;;;;;0.20;0.20;;;;;;;20.21;41.30;99973.25;5060073;28;20511;-29
2022/04/23 10:42:34;;;;;;;0.20;0.20;;;;;;;20.23;41.03;99972.94;5173932;27;20121;-24
2022/04/23 10:45:03;;;;;;;0.20;0.20;;;;;;;20.23;40.93;99970.19;5144766;27;20039;-24
2022/04/23 10:47:32;;;;;;;0.20;0.20;;;;;;;20.22;41.01;99968.56;5151963;27;20078;-24
2022/04/23 10:52:55;;;;;;;0.10;0.10;;;;;;;20.23;41.40;99972.94;5159163;27;20131;-24
2022/04/23 10:55:21;;;;;;;0.30;0.30;;;;;;;20.23;41.00;99972.94;5158235;27;20070;-24
2022/04/23 10:57:53;;;;;;;0.20;0.20;;;;;;;20.23;41.07;99972.94;5163587;27;20050;-24
2022/04/23 11:00:21;;;;;;;0.20;0.20;;;;;;;20.23;41.07;99970.19;5156509;27;20129;-24
2022/04/23 11:02:48;;;;;;;0.10;0.10;;;;;;;20.21;41.24;99967.75;5140310;27;20481;-24
2022/04/23 11:14:11;;;;;;;0.20;0.20;;;;;;;20.22;41.17;99968.56;5132524;27;20361;-24
2022/04/23 11:16:53;;;;;;;0.10;0.10;;;;;;;20.22;40.91;99955.53;5152841;27;20065;-24
2022/04/23 11:19:19;;;;;;;0.17;0.17;;;;;;;20.22;41.09;99949.19;5139163;27;20491;-24
2022/04/23 11:21:44;;;;;;;0.20;0.20;;;;;;;20.23;41.10;99954.41;5158038;27;20051;-24
2022/04/23 11:24:11;;;;;;;0.20;0.20;;;;;;;20.24;41.40;99958.00;5155874;27;20078;-24
2022/04/23 11:26:44;;;;;;;0.10;0.10;;;;;;;20.24;40.91;99953.28;5160005;27;20077;-24
2022/04/23 11:29:11;;;;;;;0.20;0.20;;;;;;;20.24;41.18;99958.81;5157878;27;20489;-24
2022/04/23 11:31:37;;;;;;;0.20;0.20;;;;;;;20.23;41.01;99959.94;5161379;27;20047;-24
2022/04/23 11:34:03;;;;;;;0.20;0.20;;;;;;;20.23;41.03;99954.41;5158836;27;20546;-24
2022/04/23 11:36:32;;;;;;;0.20;0.20;;;;;;;20.23;41.02;99948.88;5139397;27;20134;-24
2022/04/23 11:38:59;;;;;;;0.10;0.10;;;;;;;20.24;41.03;99963.50;5135963;27;20165;-25
2022/04/23 11:41:43;;;;;;;0.20;0.20;;;;;;;20.23;41.07;99948.88;5159927;27;20076;-24
2022/04/23 11:46:52;;;;;;;0.20;0.20;;;;;;;20.24;41.02;99950.50;5181828;27;20582;-23
2022/04/23 11:49:30;;;;;;;0.20;0.20;;;;;;;20.24;41.15;99949.69;5158865;27;20137;-24
2022/04/23 11:52:06;;;;;;;0.20;0.20;;;;;;;20.24;40.99;99952.47;5140211;27;20505;-24
2022/04/23 11:54:33;;;;;;;0.20;0.20;;;;;;;20.22;41.01;99943.66;5139132;27;20042;-24
2022/04/23 11:56:59;;;;;;;0.10;0.10;;;;;;;20.23;41.20;99946.13;5138500;27;20097;-25
2022/04/23 11:59:34;;;;;;;0.10;0.10;;;;;;;20.24;41.21;99939.44;5159765;27;20408;-25